sensor_id;sensor_type;location;lat;lon;timestamp;temperature;humidity
25923;DHT22;13725;51.170;4.442;2022-11-28T00:00:26;9.00;99.90
25923;DHT22;13725;51.170;4.442;2022-11-28T00:02:52;9.00;99.90
25923;DHT22;13725;51.170;4.442;2022-11-28T00:05:18;9.00;99.90
25923;DHT22;13725;51.170;4.442;2022-11-28T00:07:44;8.90;99.90
25923;DHT22;13725;51.170;4.442;2022-11-28T00:10:10;9.00;99.90
25923;DHT22;13725;51.170;4.442;2022-11-28T00:12:36;8.90;99.90
25923;DHT22;13725;51.170;4.442;2022-11-28T00:15:03;9.00;99.90
25923;DHT22;13725;51.170;4.442;2022-11-28T00:17:29;9.00;99.90
25923;DHT22;13725;51.170;4.442;2022-11-28T00:19:55;9.10;99.90
25923;DHT22;13725;51.170;4.442;2022-11-28T00:22:20;9.10;99.90
25923;DHT22;13725;51.170;4.442;2022-11-28T00:24:46;9.10;99.90
25923;DHT22;13725;51.170;4.442;2022-11-28T00:27:12;9.10;99.90
25923;DHT22;13725;51.170;4.442;2022-11-28T00:29:38;9.00;99.90
25923;DHT22;13725;51.170;4.442;2022-11-28T00:32:05;9.00;99.90
25923;DHT22;13725;51.170;4.442;2022-11-28T00:34:31;9.00;99.90
25923;DHT22;13725;51.170;4.442;2022-11-28T00:36:56;8.90;99.90
25923;DHT22;13725;51.170;4.442;2022-11-28T00:39:22;9.00;99.90
25923;DHT22;13725;51.170;4.442;2022-11-28T00:41:48;9.00;99.90
25923;DHT22;13725;51.170;4.442;2022-11-28T00:44:14;9.00;99.90
25923;DHT22;13725;51.170;4.442;2022-11-28T00:46:40;9.00;99.90
25923;DHT22;13725;51.170;4.442;2022-11-28T00:49:06;9.00;99.90
25923;DHT22;13725;51.170;4.442;2022-11-28T00:51:33;9.00;99.90
25923;DHT22;13725;51.170;4.442;2022-11-28T00:54:02;8.90;99.90
25923;DHT22;13725;51.170;4.442;2022-11-28T00:56:30;8.90;99.90
25923;DHT22;13725;51.170;4.442;2022-11-28T00:58:57;8.80;99.90
25923;DHT22;13725;51.170;4.442;2022-11-28T01:01:41;8.70;99.90
25923;DHT22;13725;51.170;4.442;2022-11-28T01:04:11;8.80;99.90
25923;DHT22;13725;51.170;4.442;2022-11-28T01:06:47;8.70;99.90
25923;DHT22;13725;51.170;4.442;2022-11-28T01:09:17;8.70;99.90
25923;DHT22;13725;51.170;4.442;2022-11-28T01:11:44;8.70;99.90
25923;DHT22;13725;51.170;4.442;2022-11-28T01:14:11;8.80;99.90
25923;DHT22;13725;51.170;4.442;2022-11-28T01:16:37;8.70;99.90
25923;DHT22;13725;51.170;4.442;2022-11-28T01:19:03;8.60;99.90
25923;DHT22;13725;51.170;4.442;2022-11-28T01:21:29;8.60;99.90
25923;DHT22;13725;51.170;4.442;2022-11-28T01:23:54;8.60;99.90
25923;DHT22;13725;51.170;4.442;2022-11-28T01:26:24;8.60;99.90
25923;DHT22;13725;51.170;4.442;2022-11-28T01:28:50;8.60;99.90
25923;DHT22;13725;51.170;4.442;2022-11-28T01:31:19;8.60;99.90
25923;DHT22;13725;51.170;4.442;2022-11-28T01:33:45;8.60;99.90
25923;DHT22;13725;51.170;4.442;2022-11-28T01:36:11;8.60;99.90
25923;DHT22;13725;51.170;4.442;2022-11-28T01:38:37;8.60;99.90
25923;DHT22;13725;51.170;4.442;2022-11-28T01:41:04;8.60;99.90
25923;DHT22;13725;51.170;4.442;2022-11-28T01:43:30;8.70;99.90
25923;DHT22;13725;51.170;4.442;2022-11-28T01:45:56;8.70;99.90
25923;DHT22;13725;51.170;4.442;2022-11-28T01:48:35;8.70;99.90
25923;DHT22;13725;51.170;4.442;2022-11-28T01:51:06;8.60;99.90
25923;DHT22;13725;51.170;4.442;2022-11-28T01:53:37;8.60;99.90
25923;DHT22;13725;51.170;4.442;2022-11-28T01:56:08;8.70;99.90
25923;DHT22;13725;51.170;4.442;2022-11-28T01:58:40;8.70;99.90
25923;DHT22;13725;51.170;4.442;2022-11-28T02:01:06;8.80;99.90
25923;DHT22;13725;51.170;4.442;2022-11-28T02:03:44;8.80;99.90
25923;DHT22;13725;51.170;4.442;2022-11-28T02:06:12;8.70;99.90
25923;DHT22;13725;51.170;4.442;2022-11-28T02:08:38;8.70;99.90
25923;DHT22;13725;51.170;4.442;2022-11-28T02:14:15;8.60;99.90
25923;DHT22;13725;51.170;4.442;2022-11-28T02:34:03;8.60;99.90
25923;DHT22;13725;51.170;4.442;2022-11-28T02:36:41;8.70;99.90
25923;DHT22;13725;51.170;4.442;2022-11-28T02:39:20;8.70;99.90
25923;DHT22;13725;51.170;4.442;2022-11-28T02:42:06;8.70;99.90
25923;DHT22;13725;51.170;4.442;2022-11-28T02:47:21;8.70;99.90
25923;DHT22;13725;51.170;4.442;2022-11-28T02:49:56;8.80;99.90
25923;DHT22;13725;51.170;4.442;2022-11-28T02:52:28;8.80;99.90
25923;DHT22;13725;51.170;4.442;2022-11-28T02:54:58;8.90;99.90
25923;DHT22;13725;51.170;4.442;2022-11-28T02:57:37;8.80;99.90
25923;DHT22;13725;51.170;4.442;2022-11-28T03:03:20;8.90;99.90
25923;DHT22;13725;51.170;4.442;2022-11-28T03:08:39;8.80;99.90
25923;DHT22;13725;51.170;4.442;2022-11-28T03:14:03;8.70;99.90
25923;DHT22;13725;51.170;4.442;2022-11-28T03:16:53;8.80;99.90
25923;DHT22;13725;51.170;4.442;2022-11-28T03:19:29;8.80;99.90
25923;DHT22;13725;51.170;4.442;2022-11-28T03:24:48;8.80;99.90
25923;DHT22;13725;51.170;4.442;2022-11-28T03:27:22;8.90;99.90
25923;DHT22;13725;51.170;4.442;2022-11-28T03:29:57;8.80;99.90
25923;DHT22;13725;51.170;4.442;2022-11-28T03:32:29;8.80;99.90
25923;DHT22;13725;51.170;4.442;2022-11-28T03:35:10;8.90;99.90
25923;DHT22;13725;51.170;4.442;2022-11-28T03:37:44;8.90;99.90
25923;DHT22;13725;51.170;4.442;2022-11-28T03:40:17;8.90;99.90
25923;DHT22;13725;51.170;4.442;2022-11-28T03:42:49;8.90;99.90
25923;DHT22;13725;51.170;4.442;2022-11-28T03:45:24;9.00;99.90
25923;DHT22;13725;51.170;4.442;2022-11-28T03:47:57;8.90;99.90
25923;DHT22;13725;51.170;4.442;2022-11-28T03:50:30;8.90;99.90
25923;DHT22;13725;51.170;4.442;2022-11-28T03:53:02;8.90;99.90
25923;DHT22;13725;51.170;4.442;2022-11-28T03:55:38;9.00;99.90
25923;DHT22;13725;51.170;4.442;2022-11-28T03:58:33;9.00;99.90
25923;DHT22;13725;51.170;4.442;2022-11-28T04:01:10;8.90;99.90
25923;DHT22;13725;51.170;4.442;2022-11-28T04:04:15;8.90;99.90
25923;DHT22;13725;51.170;4.442;2022-11-28T04:06:53;8.90;99.90
25923;DHT22;13725;51.170;4.442;2022-11-28T04:12:08;8.90;99.90
25923;DHT22;13725;51.170;4.442;2022-11-28T04:14:46;8.90;99.90
25923;DHT22;13725;51.170;4.442;2022-11-28T04:17:18;8.90;99.90
25923;DHT22;13725;51.170;4.442;2022-11-28T04:20:00;8.90;99.90
25923;DHT22;13725;51.170;4.442;2022-11-28T04:22:48;8.90;99.90
25923;DHT22;13725;51.170;4.442;2022-11-28T04:25:16;9.00;99.90
25923;DHT22;13725;51.170;4.442;2022-11-28T04:27:53;9.10;99.90
25923;DHT22;13725;51.170;4.442;2022-11-28T04:30:20;9.00;99.90
25923;DHT22;13725;51.170;4.442;2022-11-28T04:32:49;9.00;99.90
25923;DHT22;13725;51.170;4.442;2022-11-28T04:35:24;9.00;99.90
25923;DHT22;13725;51.170;4.442;2022-11-28T04:37:51;9.10;99.90
25923;DHT22;13725;51.170;4.442;2022-11-28T04:40:19;9.10;99.90
25923;DHT22;13725;51.170;4.442;2022-11-28T04:42:52;9.10;99.90
25923;DHT22;13725;51.170;4.442;2022-11-28T04:45:38;9.10;99.90
25923;DHT22;13725;51.170;4.442;2022-11-28T04:48:08;9.10;99.90
25923;DHT22;13725;51.170;4.442;2022-11-28T04:53:45;9.10;99.90
25923;DHT22;13725;51.170;4.442;2022-11-28T04:56:20;9.20;99.90
25923;DHT22;13725;51.170;4.442;2022-11-28T04:58:49;9.10;99.90
25923;DHT22;13725;51.170;4.442;2022-11-28T05:01:27;9.20;99.90
25923;DHT22;13725;51.170;4.442;2022-11-28T05:03:53;9.10;99.90
25923;DHT22;13725;51.170;4.442;2022-11-28T05:06:31;9.10;99.90
25923;DHT22;13725;51.170;4.442;2022-11-28T05:08:57;9.20;99.90
25923;DHT22;13725;51.170;4.442;2022-11-28T05:11:24;9.10;99.90
25923;DHT22;13725;51.170;4.442;2022-11-28T05:13:50;9.20;99.90
25923;DHT22;13725;51.170;4.442;2022-11-28T05:16:16;9.20;99.90
25923;DHT22;13725;51.170;4.442;2022-11-28T05:18:43;9.30;99.90
25923;DHT22;13725;51.170;4.442;2022-11-28T05:21:09;9.20;99.90
25923;DHT22;13725;51.170;4.442;2022-11-28T05:23:36;9.20;99.90
25923;DHT22;13725;51.170;4.442;2022-11-28T05:26:13;9.30;99.90
25923;DHT22;13725;51.170;4.442;2022-11-28T05:28:42;9.30;99.90
25923;DHT22;13725;51.170;4.442;2022-11-28T05:31:08;9.30;99.90
25923;DHT22;13725;51.170;4.442;2022-11-28T05:33:34;9.40;99.90
25923;DHT22;13725;51.170;4.442;2022-11-28T05:36:04;9.40;99.90
25923;DHT22;13725;51.170;4.442;2022-11-28T05:38:31;9.40;99.90
25923;DHT22;13725;51.170;4.442;2022-11-28T05:40:57;9.40;99.90
25923;DHT22;13725;51.170;4.442;2022-11-28T05:43:24;9.30;99.90
25923;DHT22;13725;51.170;4.442;2022-11-28T05:45:50;9.30;99.90
25923;DHT22;13725;51.170;4.442;2022-11-28T05:48:16;9.30;99.90
25923;DHT22;13725;51.170;4.442;2022-11-28T05:50:41;9.30;99.90
25923;DHT22;13725;51.170;4.442;2022-11-28T05:53:08;9.40;99.90
25923;DHT22;13725;51.170;4.442;2022-11-28T05:55:36;9.40;99.90
25923;DHT22;13725;51.170;4.442;2022-11-28T05:58:02;9.30;99.90
25923;DHT22;13725;51.170;4.442;2022-11-28T06:00:28;9.40;99.90
25923;DHT22;13725;51.170;4.442;2022-11-28T06:02:53;9.50;99.90
25923;DHT22;13725;51.170;4.442;2022-11-28T06:05:19;9.50;99.90
25923;DHT22;13725;51.170;4.442;2022-11-28T06:07:45;9.40;99.90
25923;DHT22;13725;51.170;4.442;2022-11-28T06:10:10;9.40;99.90
25923;DHT22;13725;51.170;4.442;2022-11-28T06:12:36;9.50;99.90
25923;DHT22;13725;51.170;4.442;2022-11-28T06:15:02;9.40;99.90
25923;DHT22;13725;51.170;4.442;2022-11-28T06:17:30;9.50;99.90
25923;DHT22;13725;51.170;4.442;2022-11-28T06:19:55;9.50;99.90
25923;DHT22;13725;51.170;4.442;2022-11-28T06:22:34;9.50;99.90
25923;DHT22;13725;51.170;4.442;2022-11-28T06:24:59;9.60;99.90
25923;DHT22;13725;51.170;4.442;2022-11-28T06:27:25;9.70;99.90
25923;DHT22;13725;51.170;4.442;2022-11-28T06:29:51;9.60;99.90
25923;DHT22;13725;51.170;4.442;2022-11-28T06:32:16;9.50;99.90
25923;DHT22;13725;51.170;4.442;2022-11-28T06:34:42;9.50;99.90
25923;DHT22;13725;51.170;4.442;2022-11-28T06:37:08;9.50;99.90
25923;DHT22;13725;51.170;4.442;2022-11-28T06:39:34;9.60;99.90
25923;DHT22;13725;51.170;4.442;2022-11-28T06:42:00;9.50;99.90
25923;DHT22;13725;51.170;4.442;2022-11-28T06:44:26;9.60;99.90
25923;DHT22;13725;51.170;4.442;2022-11-28T06:46:51;9.50;99.90
25923;DHT22;13725;51.170;4.442;2022-11-28T06:49:19;9.60;99.90
25923;DHT22;13725;51.170;4.442;2022-11-28T06:51:45;9.60;99.90
25923;DHT22;13725;51.170;4.442;2022-11-28T06:54:11;9.60;99.90
25923;DHT22;13725;51.170;4.442;2022-11-28T06:56:39;9.60;99.90
25923;DHT22;13725;51.170;4.442;2022-11-28T06:59:05;9.60;99.90
25923;DHT22;13725;51.170;4.442;2022-11-28T07:01:31;9.60;99.90
25923;DHT22;13725;51.170;4.442;2022-11-28T07:03:58;9.60;99.90
25923;DHT22;13725;51.170;4.442;2022-11-28T07:06:25;9.60;99.90
25923;DHT22;13725;51.170;4.442;2022-11-28T07:08:51;9.60;99.90
25923;DHT22;13725;51.170;4.442;2022-11-28T07:11:23;9.60;99.90
25923;DHT22;13725;51.170;4.442;2022-11-28T07:13:50;9.70;99.90
25923;DHT22;13725;51.170;4.442;2022-11-28T07:16:21;9.60;99.90
25923;DHT22;13725;51.170;4.442;2022-11-28T07:18:47;9.50;99.90
25923;DHT22;13725;51.170;4.442;2022-11-28T07:21:14;9.60;99.90
25923;DHT22;13725;51.170;4.442;2022-11-28T07:23:41;9.70;99.90
25923;DHT22;13725;51.170;4.442;2022-11-28T07:26:08;9.60;99.90
25923;DHT22;13725;51.170;4.442;2022-11-28T07:28:34;9.60;99.90
25923;DHT22;13725;51.170;4.442;2022-11-28T07:31:05;9.60;99.90
25923;DHT22;13725;51.170;4.442;2022-11-28T07:33:33;9.70;99.90
25923;DHT22;13725;51.170;4.442;2022-11-28T07:36:01;9.70;99.90
25923;DHT22;13725;51.170;4.442;2022-11-28T07:38:27;9.70;99.90
25923;DHT22;13725;51.170;4.442;2022-11-28T07:40:53;9.80;99.90
25923;DHT22;13725;51.170;4.442;2022-11-28T07:43:18;9.70;99.90
25923;DHT22;13725;51.170;4.442;2022-11-28T07:45:44;9.70;99.90
25923;DHT22;13725;51.170;4.442;2022-11-28T07:48:10;9.70;99.90
25923;DHT22;13725;51.170;4.442;2022-11-28T07:50:39;9.70;99.90
25923;DHT22;13725;51.170;4.442;2022-11-28T07:53:05;9.80;99.90
25923;DHT22;13725;51.170;4.442;2022-11-28T07:55:31;9.80;99.90
25923;DHT22;13725;51.170;4.442;2022-11-28T07:57:58;9.80;99.90
25923;DHT22;13725;51.170;4.442;2022-11-28T08:00:24;9.80;99.90
25923;DHT22;13725;51.170;4.442;2022-11-28T08:02:50;9.80;99.90
25923;DHT22;13725;51.170;4.442;2022-11-28T08:05:15;9.90;99.90
25923;DHT22;13725;51.170;4.442;2022-11-28T08:07:41;9.80;99.90
25923;DHT22;13725;51.170;4.442;2022-11-28T08:10:08;9.80;99.90
25923;DHT22;13725;51.170;4.442;2022-11-28T08:12:34;9.80;99.90
25923;DHT22;13725;51.170;4.442;2022-11-28T08:14:59;9.90;99.90
25923;DHT22;13725;51.170;4.442;2022-11-28T08:17:25;10.00;99.90
25923;DHT22;13725;51.170;4.442;2022-11-28T08:19:51;10.00;99.90
25923;DHT22;13725;51.170;4.442;2022-11-28T08:22:17;10.00;99.90
25923;DHT22;13725;51.170;4.442;2022-11-28T08:24:42;10.00;99.90
25923;DHT22;13725;51.170;4.442;2022-11-28T08:27:08;9.90;99.90
25923;DHT22;13725;51.170;4.442;2022-11-28T08:29:34;9.90;99.90
25923;DHT22;13725;51.170;4.442;2022-11-28T08:31:59;9.90;99.90
25923;DHT22;13725;51.170;4.442;2022-11-28T08:34:25;10.00;99.90
25923;DHT22;13725;51.170;4.442;2022-11-28T08:36:51;10.00;99.90
25923;DHT22;13725;51.170;4.442;2022-11-28T08:39:16;10.00;99.90
25923;DHT22;13725;51.170;4.442;2022-11-28T08:41:43;10.00;99.90
25923;DHT22;13725;51.170;4.442;2022-11-28T08:44:09;10.00;99.90
25923;DHT22;13725;51.170;4.442;2022-11-28T08:46:35;10.20;99.90
25923;DHT22;13725;51.170;4.442;2022-11-28T08:49:01;10.10;99.90
25923;DHT22;13725;51.170;4.442;2022-11-28T08:51:26;10.10;99.90
25923;DHT22;13725;51.170;4.442;2022-11-28T08:53:55;10.10;99.90
25923;DHT22;13725;51.170;4.442;2022-11-28T08:56:21;10.20;99.90
25923;DHT22;13725;51.170;4.442;2022-11-28T08:58:46;10.20;99.90
25923;DHT22;13725;51.170;4.442;2022-11-28T09:01:20;10.20;99.90
25923;DHT22;13725;51.170;4.442;2022-11-28T09:03:47;10.20;99.90
25923;DHT22;13725;51.170;4.442;2022-11-28T09:06:14;10.40;99.90
25923;DHT22;13725;51.170;4.442;2022-11-28T09:08:41;10.30;99.90
25923;DHT22;13725;51.170;4.442;2022-11-28T09:11:12;10.30;99.90
25923;DHT22;13725;51.170;4.442;2022-11-28T09:13:38;10.40;99.90
25923;DHT22;13725;51.170;4.442;2022-11-28T09:16:05;10.50;99.90
25923;DHT22;13725;51.170;4.442;2022-11-28T09:18:32;10.40;99.90
25923;DHT22;13725;51.170;4.442;2022-11-28T09:21:06;10.50;99.90
25923;DHT22;13725;51.170;4.442;2022-11-28T09:23:37;10.50;99.90
25923;DHT22;13725;51.170;4.442;2022-11-28T09:26:23;10.50;99.90
25923;DHT22;13725;51.170;4.442;2022-11-28T09:28:49;10.60;99.90
25923;DHT22;13725;51.170;4.442;2022-11-28T09:31:16;10.60;99.90
25923;DHT22;13725;51.170;4.442;2022-11-28T09:33:44;10.70;99.90
25923;DHT22;13725;51.170;4.442;2022-11-28T09:36:18;10.70;99.90
25923;DHT22;13725;51.170;4.442;2022-11-28T09:38:44;10.70;99.90
25923;DHT22;13725;51.170;4.442;2022-11-28T09:43:46;10.70;99.90
25923;DHT22;13725;51.170;4.442;2022-11-28T09:46:15;10.70;99.90
25923;DHT22;13725;51.170;4.442;2022-11-28T09:48:49;10.80;99.90
25923;DHT22;13725;51.170;4.442;2022-11-28T09:51:56;10.80;99.90
25923;DHT22;13725;51.170;4.442;2022-11-28T09:54:36;10.90;99.90
25923;DHT22;13725;51.170;4.442;2022-11-28T09:57:14;11.00;99.90
25923;DHT22;13725;51.170;4.442;2022-11-28T09:59:48;11.30;99.90
25923;DHT22;13725;51.170;4.442;2022-11-28T10:02:34;11.30;99.90
25923;DHT22;13725;51.170;4.442;2022-11-28T10:07:52;11.30;99.90
25923;DHT22;13725;51.170;4.442;2022-11-28T10:13:56;11.30;99.90
25923;DHT22;13725;51.170;4.442;2022-11-28T10:19:43;11.40;99.90
25923;DHT22;13725;51.170;4.442;2022-11-28T10:22:16;11.50;99.90
25923;DHT22;13725;51.170;4.442;2022-11-28T10:24:48;11.60;99.90
25923;DHT22;13725;51.170;4.442;2022-11-28T10:27:15;11.70;99.90
25923;DHT22;13725;51.170;4.442;2022-11-28T10:30:01;11.80;99.90
25923;DHT22;13725;51.170;4.442;2022-11-28T10:32:37;11.80;99.90
25923;DHT22;13725;51.170;4.442;2022-11-28T10:35:55;11.60;99.90
25923;DHT22;13725;51.170;4.442;2022-11-28T10:38:24;11.70;99.90
25923;DHT22;13725;51.170;4.442;2022-11-28T10:54:18;11.90;99.90
25923;DHT22;13725;51.170;4.442;2022-11-28T11:01:44;12.10;99.90
25923;DHT22;13725;51.170;4.442;2022-11-28T11:04:21;12.30;99.90
25923;DHT22;13725;51.170;4.442;2022-11-28T11:07:11;12.30;99.90
25923;DHT22;13725;51.170;4.442;2022-11-28T11:09:39;12.30;99.90
25923;DHT22;13725;51.170;4.442;2022-11-28T11:12:09;12.40;99.90
25923;DHT22;13725;51.170;4.442;2022-11-28T11:14:39;12.60;99.90
25923;DHT22;13725;51.170;4.442;2022-11-28T11:17:05;12.60;99.90
25923;DHT22;13725;51.170;4.442;2022-11-28T11:19:37;12.80;99.90
25923;DHT22;13725;51.170;4.442;2022-11-28T11:22:05;12.90;99.90
25923;DHT22;13725;51.170;4.442;2022-11-28T11:24:32;13.00;99.90
25923;DHT22;13725;51.170;4.442;2022-11-28T11:27:11;13.00;99.90
25923;DHT22;13725;51.170;4.442;2022-11-28T11:29:39;13.10;99.90
25923;DHT22;13725;51.170;4.442;2022-11-28T11:32:15;13.20;99.90
25923;DHT22;13725;51.170;4.442;2022-11-28T11:34:43;13.40;99.90
25923;DHT22;13725;51.170;4.442;2022-11-28T11:37:29;13.70;99.90
25923;DHT22;13725;51.170;4.442;2022-11-28T11:39:56;14.00;99.90
25923;DHT22;13725;51.170;4.442;2022-11-28T11:42:25;14.00;99.90
25923;DHT22;13725;51.170;4.442;2022-11-28T11:44:51;13.80;99.90
25923;DHT22;13725;51.170;4.442;2022-11-28T11:47:18;13.80;99.90
25923;DHT22;13725;51.170;4.442;2022-11-28T11:49:46;14.00;99.90
25923;DHT22;13725;51.170;4.442;2022-11-28T11:52:23;14.20;99.90
25923;DHT22;13725;51.170;4.442;2022-11-28T11:57:24;13.80;99.90
25923;DHT22;13725;51.170;4.442;2022-11-28T12:02:53;13.70;99.90
25923;DHT22;13725;51.170;4.442;2022-11-28T12:05:23;13.60;99.90
25923;DHT22;13725;51.170;4.442;2022-11-28T12:08:18;13.60;99.90
25923;DHT22;13725;51.170;4.442;2022-11-28T12:10:59;13.50;99.90
25923;DHT22;13725;51.170;4.442;2022-11-28T12:13:28;13.60;99.90
25923;DHT22;13725;51.170;4.442;2022-11-28T12:22:34;13.50;99.90
25923;DHT22;13725;51.170;4.442;2022-11-28T12:28:00;13.70;99.90
25923;DHT22;13725;51.170;4.442;2022-11-28T12:30:49;13.70;99.90
25923;DHT22;13725;51.170;4.442;2022-11-28T12:36:09;13.40;99.90
25923;DHT22;13725;51.170;4.442;2022-11-28T12:38:47;13.10;99.90
25923;DHT22;13725;51.170;4.442;2022-11-28T12:49:20;12.90;99.90
25923;DHT22;13725;51.170;4.442;2022-11-28T12:51:56;13.00;99.90
25923;DHT22;13725;51.170;4.442;2022-11-28T12:57:20;13.00;99.90
25923;DHT22;13725;51.170;4.442;2022-11-28T13:05:00;13.20;99.90
25923;DHT22;13725;51.170;4.442;2022-11-28T13:07:45;13.20;99.90
25923;DHT22;13725;51.170;4.442;2022-11-28T13:10:24;13.10;99.90
25923;DHT22;13725;51.170;4.442;2022-11-28T13:13:06;13.00;99.90
25923;DHT22;13725;51.170;4.442;2022-11-28T13:18:45;12.80;99.90
25923;DHT22;13725;51.170;4.442;2022-11-28T13:26:50;12.70;99.90
25923;DHT22;13725;51.170;4.442;2022-11-28T13:32:48;12.70;99.90
25923;DHT22;13725;51.170;4.442;2022-11-28T13:35:15;12.60;99.90
25923;DHT22;13725;51.170;4.442;2022-11-28T13:40:27;12.80;99.90
25923;DHT22;13725;51.170;4.442;2022-11-28T13:45:45;12.80;99.90
25923;DHT22;13725;51.170;4.442;2022-11-28T13:51:01;12.80;99.90
25923;DHT22;13725;51.170;4.442;2022-11-28T13:53:27;12.70;99.90
25923;DHT22;13725;51.170;4.442;2022-11-28T14:01:10;12.30;99.90
25923;DHT22;13725;51.170;4.442;2022-11-28T14:03:45;12.20;99.90
25923;DHT22;13725;51.170;4.442;2022-11-28T14:06:15;12.10;99.90
25923;DHT22;13725;51.170;4.442;2022-11-28T14:08:43;12.00;99.90
25923;DHT22;13725;51.170;4.442;2022-11-28T14:25:25;11.60;99.90
25923;DHT22;13725;51.170;4.442;2022-11-28T14:28:23;11.60;99.90
25923;DHT22;13725;51.170;4.442;2022-11-28T14:30:50;11.50;99.90
25923;DHT22;13725;51.170;4.442;2022-11-28T14:33:23;11.50;99.90
25923;DHT22;13725;51.170;4.442;2022-11-28T14:41:03;11.60;99.90
25923;DHT22;13725;51.170;4.442;2022-11-28T14:43:35;11.60;99.90
25923;DHT22;13725;51.170;4.442;2022-11-28T14:56:50;11.40;99.90
25923;DHT22;13725;51.170;4.442;2022-11-28T14:59:17;11.50;99.90
25923;DHT22;13725;51.170;4.442;2022-11-28T15:01:55;11.30;99.90
25923;DHT22;13725;51.170;4.442;2022-11-28T15:04:50;11.30;99.90
25923;DHT22;13725;51.170;4.442;2022-11-28T15:10:42;11.20;99.90
25923;DHT22;13725;51.170;4.442;2022-11-28T15:13:30;11.20;99.90
25923;DHT22;13725;51.170;4.442;2022-11-28T15:16:02;11.20;99.90
25923;DHT22;13725;51.170;4.442;2022-11-28T15:18:30;11.10;99.90
25923;DHT22;13725;51.170;4.442;2022-11-28T15:21:01;11.00;99.90
25923;DHT22;13725;51.170;4.442;2022-11-28T15:23:34;11.00;99.90
25923;DHT22;13725;51.170;4.442;2022-11-28T15:26:03;11.10;99.90
25923;DHT22;13725;51.170;4.442;2022-11-28T15:28:30;11.10;99.90
25923;DHT22;13725;51.170;4.442;2022-11-28T15:31:03;11.10;99.90
25923;DHT22;13725;51.170;4.442;2022-11-28T15:33:31;11.10;99.90
25923;DHT22;13725;51.170;4.442;2022-11-28T15:35:59;11.10;99.90
25923;DHT22;13725;51.170;4.442;2022-11-28T15:38:26;11.10;99.90
25923;DHT22;13725;51.170;4.442;2022-11-28T15:40:54;11.10;99.90
25923;DHT22;13725;51.170;4.442;2022-11-28T15:43:22;11.10;99.90
25923;DHT22;13725;51.170;4.442;2022-11-28T15:46:11;11.00;99.90
25923;DHT22;13725;51.170;4.442;2022-11-28T15:48:47;11.00;99.90
25923;DHT22;13725;51.170;4.442;2022-11-28T15:51:33;11.00;99.90
25923;DHT22;13725;51.170;4.442;2022-11-28T15:54:16;10.90;99.90
25923;DHT22;13725;51.170;4.442;2022-11-28T15:56:56;10.90;99.90
25923;DHT22;13725;51.170;4.442;2022-11-28T15:59:22;10.90;99.90
25923;DHT22;13725;51.170;4.442;2022-11-28T16:01:49;10.80;99.90
25923;DHT22;13725;51.170;4.442;2022-11-28T16:04:17;10.90;99.90
25923;DHT22;13725;51.170;4.442;2022-11-28T16:06:49;10.90;99.90
25923;DHT22;13725;51.170;4.442;2022-11-28T16:11:50;10.80;99.90
25923;DHT22;13725;51.170;4.442;2022-11-28T16:14:27;10.70;99.90
25923;DHT22;13725;51.170;4.442;2022-11-28T16:16:54;10.70;99.90
25923;DHT22;13725;51.170;4.442;2022-11-28T16:19:26;10.60;99.90
25923;DHT22;13725;51.170;4.442;2022-11-28T16:22:00;10.60;99.90
25923;DHT22;13725;51.170;4.442;2022-11-28T16:24:42;10.60;99.90
25923;DHT22;13725;51.170;4.442;2022-11-28T16:29:51;10.70;99.90
25923;DHT22;13725;51.170;4.442;2022-11-28T16:32:23;10.70;99.90
25923;DHT22;13725;51.170;4.442;2022-11-28T16:34:56;10.70;99.90
25923;DHT22;13725;51.170;4.442;2022-11-28T16:37:26;10.70;99.90
25923;DHT22;13725;51.170;4.442;2022-11-28T16:40:15;10.70;99.90
25923;DHT22;13725;51.170;4.442;2022-11-28T16:42:51;10.70;99.90
25923;DHT22;13725;51.170;4.442;2022-11-28T16:45:20;10.70;99.90
25923;DHT22;13725;51.170;4.442;2022-11-28T16:48:14;10.60;99.90
25923;DHT22;13725;51.170;4.442;2022-11-28T16:53:51;10.60;99.90
25923;DHT22;13725;51.170;4.442;2022-11-28T16:59:11;10.60;99.90
25923;DHT22;13725;51.170;4.442;2022-11-28T17:01:39;10.60;99.90
25923;DHT22;13725;51.170;4.442;2022-11-28T17:04:05;10.60;99.90
25923;DHT22;13725;51.170;4.442;2022-11-28T17:06:33;10.70;99.90
25923;DHT22;13725;51.170;4.442;2022-11-28T17:09:06;10.70;99.90
25923;DHT22;13725;51.170;4.442;2022-11-28T17:11:35;10.80;99.90
25923;DHT22;13725;51.170;4.442;2022-11-28T17:14:04;10.80;99.90
25923;DHT22;13725;51.170;4.442;2022-11-28T17:16:31;10.90;99.90
25923;DHT22;13725;51.170;4.442;2022-11-28T17:18:58;10.90;99.90
25923;DHT22;13725;51.170;4.442;2022-11-28T17:21:41;10.90;99.90
25923;DHT22;13725;51.170;4.442;2022-11-28T17:24:19;10.90;99.90
25923;DHT22;13725;51.170;4.442;2022-11-28T17:26:46;10.90;99.90
25923;DHT22;13725;51.170;4.442;2022-11-28T17:29:13;10.90;99.90
25923;DHT22;13725;51.170;4.442;2022-11-28T17:31:40;10.80;99.90
25923;DHT22;13725;51.170;4.442;2022-11-28T17:34:20;10.90;99.90
25923;DHT22;13725;51.170;4.442;2022-11-28T17:36:47;10.80;99.90
25923;DHT22;13725;51.170;4.442;2022-11-28T17:39:13;10.80;99.90
25923;DHT22;13725;51.170;4.442;2022-11-28T17:41:40;10.80;99.90
25923;DHT22;13725;51.170;4.442;2022-11-28T17:44:09;10.80;99.90
25923;DHT22;13725;51.170;4.442;2022-11-28T17:46:37;10.80;99.90
25923;DHT22;13725;51.170;4.442;2022-11-28T17:49:03;10.80;99.90
25923;DHT22;13725;51.170;4.442;2022-11-28T17:51:30;10.80;99.90
25923;DHT22;13725;51.170;4.442;2022-11-28T17:53:55;10.80;99.90
25923;DHT22;13725;51.170;4.442;2022-11-28T17:56:21;10.80;99.90
25923;DHT22;13725;51.170;4.442;2022-11-28T17:58:47;10.90;99.90
25923;DHT22;13725;51.170;4.442;2022-11-28T18:01:15;10.90;99.90
25923;DHT22;13725;51.170;4.442;2022-11-28T18:03:42;10.80;99.90
25923;DHT22;13725;51.170;4.442;2022-11-28T18:06:17;10.70;99.90
25923;DHT22;13725;51.170;4.442;2022-11-28T18:08:44;10.70;99.90
25923;DHT22;13725;51.170;4.442;2022-11-28T18:11:11;10.70;99.90
25923;DHT22;13725;51.170;4.442;2022-11-28T18:13:38;10.70;99.90
25923;DHT22;13725;51.170;4.442;2022-11-28T18:16:03;10.60;99.90
25923;DHT22;13725;51.170;4.442;2022-11-28T18:18:29;10.60;99.90
25923;DHT22;13725;51.170;4.442;2022-11-28T18:20:56;10.70;99.90
25923;DHT22;13725;51.170;4.442;2022-11-28T18:23:22;10.60;99.90
25923;DHT22;13725;51.170;4.442;2022-11-28T18:25:48;10.60;99.90
25923;DHT22;13725;51.170;4.442;2022-11-28T18:28:14;10.60;99.90
25923;DHT22;13725;51.170;4.442;2022-11-28T18:30:44;10.60;99.90
25923;DHT22;13725;51.170;4.442;2022-11-28T18:33:11;10.60;99.90
25923;DHT22;13725;51.170;4.442;2022-11-28T18:35:38;10.60;99.90
25923;DHT22;13725;51.170;4.442;2022-11-28T18:38:04;10.60;99.90
25923;DHT22;13725;51.170;4.442;2022-11-28T18:40:30;10.50;99.90
25923;DHT22;13725;51.170;4.442;2022-11-28T18:42:56;10.70;99.90
25923;DHT22;13725;51.170;4.442;2022-11-28T18:45:23;10.40;99.90
25923;DHT22;13725;51.170;4.442;2022-11-28T18:47:49;10.40;99.90
25923;DHT22;13725;51.170;4.442;2022-11-28T18:50:16;10.40;99.90
25923;DHT22;13725;51.170;4.442;2022-11-28T18:52:41;10.40;99.90